Saint Louis, Missouri
Current Conditions -  °F | °C
As of 4:53 PM on Saturday 20 Dec 2014 (Local Time) from KCPS Reporting Station
Overcast Overcast  
Wind Chill: 38°   Ceiling: 3200
Heat Index: 42°   Visibility: 10mi
Dew Point: 34°   Wind: 6mph
Humidity: 73%   Direction: 130°SE
Pressure: 30.24"   Gusts: NA
Location:  38.63°N, 90.24°W
Report Text: KCPS 202253Z 13005KT 10SM OVC032 06/01 A3024 RMK AO2 SLP241 T00560011
Loading
Personal Weather Stations






























Interactive Weather Map New forecast layout! Learn more

10-Day Weather Forecast

Advertisements
Track Severe Weather on mobile